Time;durP1;ratioP1;P1;durP2;ratioP2;P2;SDS_P1;SDS_P2;PMS_P1;PMS_P2;Temp;Humidity;BMP_temperature;BMP_pressure;BME280_temperature;BME280_humidity;BME280_pressure;Samples;Min_cycle;Max_cycle;Signal;HPM_P1;HPM_P2
2021/12/24 00:00:33;;;;;;;195.45;68.63;;;;;;;-2.34;99.18;99857.72;4949383;29;20176;-85
2021/12/24 00:02:59;;;;;;;158.35;54.45;;;;;;;-3.58;99.24;99662.66;4977980;29;20187;-85
2021/12/24 00:05:25;;;;;;;137.17;49.87;;;;;;;-2.36;99.63;99874.88;4969269;29;20169;-85
2021/12/24 00:07:51;;;;;;;122.82;44.70;;;;;;;-3.94;99.66;99600.44;4946711;29;20219;-85
2021/12/24 00:10:17;;;;;;;125.67;45.30;;;;;;;-3.14;100.00;99744.75;4961024;29;20225;-86
2021/12/24 00:12:55;;;;;;;124.40;46.50;;;;;;;-4.61;99.41;99463.28;4960251;29;20177;-86
2021/12/24 00:15:48;;;;;;;126.78;48.13;;;;;;;-2.39;99.75;99844.88;4959678;29;20215;-85
2021/12/24 00:18:25;;;;;;;121.55;43.97;;;;;;;-2.24;99.57;99881.09;4959905;29;20251;-87
2021/12/24 00:37:26;;;;;;;128.93;43.35;;;;;;;-2.34;99.39;99888.34;4862961;29;20220;-87
2021/12/24 00:42:27;;;;;;;121.35;42.05;;;;;;;-3.63;99.76;99686.94;4862710;29;20700;-86
2021/12/24 00:44:53;;;;;;;122.23;40.70;;;;;;;-3.01;100.00;99819.56;4862023;29;20236;-84
2021/12/24 00:47:18;;;;;;;168.27;60.43;;;;;;;-4.01;100.00;99634.28;4862300;29;20231;-86
2021/12/24 00:49:44;;;;;;;155.00;51.33;;;;;;;-4.44;100.00;99535.94;4862800;29;20176;-88
2021/12/24 00:55:05;;;;;;;139.27;47.05;;;;;;;-2.55;99.91;99841.53;4899788;29;20186;-86
2021/12/24 00:57:33;;;;;;;256.05;70.45;;;;;;;-3.39;100.00;99718.22;4899781;29;20235;-85
2021/12/24 00:59:59;;;;;;;223.88;61.22;;;;;;;-2.66;100.00;99842.06;4894954;29;20227;-86
2021/12/24 01:02:24;;;;;;;230.10;67.17;;;;;;;-4.08;100.00;99621.97;4960182;29;20169;-85
2021/12/24 01:04:50;;;;;;;159.97;55.13;;;;;;;-2.63;100.00;99827.50;4958810;29;20535;-85
2021/12/24 01:07:15;;;;;;;119.47;43.53;;;;;;;-2.87;100.00;99797.78;4940670;29;20371;-86
2021/12/24 01:09:41;;;;;;;115.20;43.87;;;;;;;-3.12;100.00;99750.75;4942042;29;20177;-85
2021/12/24 01:12:07;;;;;;;126.47;47.10;;;;;;;-5.03;100.00;99403.03;4958627;29;20160;-83
2021/12/24 01:14:33;;;;;;;121.35;45.90;;;;;;;-5.49;100.00;99308.59;4947029;29;20205;-87
2021/12/24 01:17:13;;;;;;;127.97;46.17;;;;;;;-3.75;100.00;99660.94;4960248;29;20215;-86
2021/12/24 01:19:41;;;;;;;152.38;52.22;;;;;;;-3.33;100.00;99691.66;4942946;29;20727;-87
2021/12/24 01:37:52;;;;;;;120.38;44.65;;;;;;;-3.68;100.00;99669.88;4898396;29;20672;-86
2021/12/24 01:39:05;;;;;;;117.18;43.30;;;;;;;-3.11;99.12;99726.88;4897723;29;20264;-86
2021/12/24 01:44:15;;;;;;;137.55;50.28;;;;;;;-3.73;98.82;99616.56;4896851;29;20202;-85
2021/12/24 01:46:43;;;;;;;138.00;51.33;;;;;;;-3.47;98.89;99659.69;4895827;29;20238;-87
2021/12/24 01:49:09;;;;;;;147.02;57.55;;;;;;;-4.38;97.89;99451.72;4880700;29;20182;-86
2021/12/24 01:51:34;;;;;;;155.23;54.43;;;;;;;-2.85;97.20;99684.88;4896606;29;20727;-86
2021/12/24 01:53:59;;;;;;;160.53;59.73;;;;;;;-3.24;97.04;99633.16;4880790;29;20355;-85
2021/12/24 01:56:27;;;;;;;265.53;92.27;;;;;;;-3.12;97.15;99645.88;4896487;29;20190;-85
2021/12/24 01:58:52;;;;;;;259.52;97.13;;;;;;;-2.49;97.05;99748.00;4897500;29;20624;-86
2021/12/24 02:01:17;;;;;;;257.63;91.23;;;;;;;-5.52;96.28;99222.00;4896198;29;20205;-85
2021/12/24 02:03:46;;;;;;;194.63;70.33;;;;;;;-3.08;97.15;99661.19;4896453;29;20174;-85
2021/12/24 02:06:11;;;;;;;150.32;52.50;;;;;;;-4.12;96.64;99472.50;4896346;29;20273;-84
2021/12/24 02:08:37;;;;;;;149.47;50.77;;;;;;;-4.81;97.46;99404.50;4896067;29;20358;-85
2021/12/24 02:11:02;;;;;;;163.83;59.60;;;;;;;-4.16;97.89;99467.97;4896376;29;20175;-84
2021/12/24 02:13:27;;;;;;;153.90;54.73;;;;;;;-5.08;97.24;99352.31;4896233;29;20198;-86
2021/12/24 02:29:20;;;;;;;138.60;51.33;;;;;;;-3.17;99.45;99676.72;4955530;29;20176;-89
2021/12/24 02:31:45;;;;;;;151.20;54.30;;;;;;;-3.38;99.40;99638.34;4954708;29;20192;-85
2021/12/24 02:34:11;;;;;;;162.83;60.13;;;;;;;-2.89;99.03;99682.84;4954871;29;20275;-84
2021/12/24 02:36:36;;;;;;;190.37;66.23;;;;;;;-5.56;97.87;99203.56;4938224;29;20195;-85
2021/12/24 02:39:06;;;;;;;191.57;65.97;;;;;;;-4.35;98.11;99383.72;4937436;29;20668;-86
2021/12/24 02:41:31;;;;;;;148.65;55.30;;;;;;;-4.62;97.08;99343.03;4938101;29;20173;-86
2021/12/24 02:43:57;;;;;;;151.07;54.13;;;;;;;-2.70;97.34;99681.47;4938098;29;20240;-85
2021/12/24 02:46:40;;;;;;;150.63;50.07;;;;;;;-2.62;96.75;99675.66;4937247;29;21027;-86
2021/12/24 02:54:21;;;;;;;128.50;49.53;;;;;;;-3.29;97.63;99603.72;4960276;28;20183;-85
2021/12/24 02:56:58;;;;;;;132.73;49.80;;;;;;;-3.70;98.57;99564.94;4959134;29;20165;-85
2021/12/24 02:59:26;;;;;;;128.55;47.30;;;;;;;-3.44;98.75;99612.09;4975413;29;20165;-83
2021/12/24 03:01:53;;;;;;;127.40;48.00;;;;;;;-3.66;98.19;99569.50;4957853;29;20189;-85
2021/12/24 03:04:18;;;;;;;135.75;50.03;;;;;;;-5.15;98.33;99335.13;4943097;29;20176;-84
2021/12/24 03:06:47;;;;;;;136.80;50.80;;;;;;;-5.03;97.89;99306.78;4941930;29;20215;-85
2021/12/24 03:09:16;;;;;;;135.80;53.65;;;;;;;-4.71;98.46;99393.94;4960574;29;20177;-85
2021/12/24 03:11:46;;;;;;;147.68;54.28;;;;;;;-5.39;98.44;99290.00;4959507;29;20216;-86
2021/12/24 03:14:15;;;;;;;144.57;53.03;;;;;;;-2.94;99.01;99674.09;4957617;29;20216;-85
2021/12/24 03:16:43;;;;;;;159.85;56.33;;;;;;;-4.85;98.27;99350.59;4941406;29;20188;-86
2021/12/24 03:19:09;;;;;;;152.02;57.42;;;;;;;-5.89;98.66;99195.22;4958569;29;20157;-85
2021/12/24 03:21:45;;;;;;;163.67;58.40;;;;;;;-5.56;98.04;99244.59;4958342;29;20556;-86
2021/12/24 03:26:39;;;;;;;158.77;54.53;;;;;;;-3.20;99.39;99679.78;4958143;29;20191;-85
2021/12/24 03:29:09;;;;;;;142.90;52.20;;;;;;;-6.08;99.43;99208.81;4958751;29;20169;-84
2021/12/24 03:31:39;;;;;;;144.60;50.45;;;;;;;-3.94;99.91;99547.63;4926356;29;20203;-84
2021/12/24 03:34:12;;;;;;;136.32;47.80;;;;;;;-3.15;99.44;99653.00;4965839;29;20184;-86
2021/12/24 03:36:39;;;;;;;132.48;48.92;;;;;;;-4.12;99.41;99467.53;4963076;29;20180;-85
2021/12/24 03:39:07;;;;;;;120.00;43.95;;;;;;;-3.92;98.89;99512.47;4941009;29;20191;-85
2021/12/24 03:41:32;;;;;;;127.13;46.65;;;;;;;-5.79;99.39;99252.06;4961479;29;20211;-84
2021/12/24 03:43:58;;;;;;;124.63;45.33;;;;;;;-3.88;99.80;99591.19;4973541;29;20181;-84
2021/12/24 03:46:33;;;;;;;121.63;45.63;;;;;;;-4.24;99.78;99518.22;4960438;29;20732;-84
2021/12/24 03:49:05;;;;;;;133.02;47.38;;;;;;;-4.13;99.73;99517.72;4961779;29;20189;-85
2021/12/24 03:51:58;;;;;;;125.40;46.33;;;;;;;-3.83;99.46;99547.13;4959162;29;21001;-86
2021/12/24 03:57:03;;;;;;;129.65;48.25;;;;;;;-3.79;100.00;99601.13;4898170;29;20643;-85
2021/12/24 03:59:28;;;;;;;128.82;46.75;;;;;;;-4.81;100.00;99399.56;4898729;29;20191;-85
2021/12/24 04:01:54;;;;;;;132.30;47.03;;;;;;;-6.19;100.00;99195.41;4890927;29;20196;-87
2021/12/24 04:04:20;;;;;;;131.90;48.57;;;;;;;-3.44;100.00;99635.25;4888525;29;20569;-84
2021/12/24 04:06:47;;;;;;;114.32;41.47;;;;;;;-4.42;100.00;99462.00;4866306;29;20298;-85
2021/12/24 04:09:12;;;;;;;126.13;46.53;;;;;;;-5.15;100.00;99328.59;4882292;29;20187;-86
2021/12/24 04:11:39;;;;;;;134.23;49.67;;;;;;;-4.88;100.00;99360.16;4884114;29;20197;-85
2021/12/24 04:14:06;;;;;;;144.73;51.63;;;;;;;-4.44;100.00;99416.50;4895192;29;20197;-85
2021/12/24 04:16:32;;;;;;;140.77;51.20;;;;;;;-3.32;100.00;99589.44;4879289;29;20623;-86
2021/12/24 04:26:56;;;;;;;138.10;48.60;;;;;;;-3.32;100.00;99608.34;4878998;29;20370;-85
2021/12/24 04:29:21;;;;;;;133.43;49.80;;;;;;;-5.50;100.00;99238.69;4879290;29;20207;-85
2021/12/24 04:32:06;;;;;;;128.30;51.47;;;;;;;-7.21;100.00;98925.53;4878895;29;20243;-84
2021/12/24 04:34:34;;;;;;;137.20;51.78;;;;;;;-3.51;100.00;99542.91;4902545;29;20328;-86
2021/12/24 04:50:54;;;;;;;141.32;55.28;;;;;;;-3.27;100.00;99538.78;4938477;29;20176;-85
2021/12/24 05:01:50;;;;;;;140.68;54.13;;;;;;;-4.61;98.72;99300.31;4937390;29;20212;-86
2021/12/24 05:04:24;;;;;;;226.23;71.05;;;;;;;-3.06;98.17;99579.66;4936760;29;20225;-85
2021/12/24 05:06:56;;;;;;;154.45;56.20;;;;;;;-5.03;97.74;99240.16;4935374;29;20337;-86
2021/12/24 05:09:24;;;;;;;212.77;68.20;;;;;;;-3.73;97.85;99471.53;4919848;29;20236;-86
2021/12/24 05:11:49;;;;;;;231.07;88.18;;;;;;;-7.01;97.46;98959.56;4919657;29;20188;-86
2021/12/24 05:14:15;;;;;;;128.97;48.23;;;;;;;-5.52;97.51;99203.13;4936762;29;20169;-83
2021/12/24 05:16:51;;;;;;;130.95;49.53;;;;;;;-4.25;98.06;99450.63;4919402;29;20191;-83
2021/12/24 05:21:43;;;;;;;149.02;55.85;;;;;;;-4.23;98.21;99441.75;4936738;29;20209;-84
2021/12/24 05:24:16;;;;;;;160.13;56.43;;;;;;;-3.35;98.33;99590.75;4936557;29;20165;-86
2021/12/24 05:27:03;;;;;;;132.35;49.72;;;;;;;-6.38;97.98;99095.72;4934527;29;20213;-86
2021/12/24 05:29:29;;;;;;;209.45;75.32;;;;;;;-3.51;99.00;99585.84;4934133;29;20261;-84
2021/12/24 05:31:55;;;;;;;157.18;57.35;;;;;;;-4.17;99.45;99486.88;4936744;29;20188;-85
2021/12/24 05:34:21;;;;;;;152.98;53.00;;;;;;;-6.39;99.28;99122.63;4950007;29;20678;-84
2021/12/24 05:36:48;;;;;;;188.70;68.87;;;;;;;-5.20;99.83;99324.81;4950147;29;20174;-85
2021/12/24 05:39:17;;;;;;;191.93;69.75;;;;;;;-3.62;100.00;99586.38;4918807;29;20247;-85
2021/12/24 05:41:43;;;;;;;297.55;102.38;;;;;;;-3.64;100.00;99607.59;4934994;29;20304;-85
2021/12/24 05:44:10;;;;;;;201.77;71.27;;;;;;;-4.97;100.00;99421.78;4934554;29;20243;-85
2021/12/24 05:46:36;;;;;;;196.10;68.47;;;;;;;-5.59;100.00;99284.59;4933843;29;20233;-84
2021/12/24 05:49:04;;;;;;;157.45;54.80;;;;;;;-5.69;100.00;99231.72;4933712;29;20201;-85
2021/12/24 05:51:30;;;;;;;116.43;42.65;;;;;;;-5.72;100.00;99259.41;4902527;29;20295;-84
2021/12/24 05:53:55;;;;;;;141.63;52.23;;;;;;;-6.16;100.00;99190.78;4933796;29;20288;-85
2021/12/24 05:56:22;;;;;;;339.83;118.33;;;;;;;-3.69;100.00;99624.47;4934458;29;20251;-84
2021/12/24 05:58:48;;;;;;;269.92;91.38;;;;;;;-3.58;100.00;99603.28;4935628;29;20165;-83
2021/12/24 06:01:14;;;;;;;300.40;94.27;;;;;;;-4.18;100.00;99492.56;4954961;29;20196;-81
2021/12/24 06:03:41;;;;;;;353.70;116.13;;;;;;;-3.50;100.00;99606.53;4955329;29;20169;-82
2021/12/24 06:06:06;;;;;;;349.98;120.30;;;;;;;-5.96;100.00;99191.97;4945017;29;20236;-85
2021/12/24 06:08:32;;;;;;;489.93;174.23;;;;;;;-5.04;100.00;99305.03;4938249;29;20284;-84
2021/12/24 06:10:57;;;;;;;423.50;150.03;;;;;;;-3.77;100.00;99498.28;4942915;29;20233;-82
2021/12/24 06:13:24;;;;;;;410.93;147.27;;;;;;;-4.51;99.99;99377.97;4941482;29;20725;-83
2021/12/24 06:15:51;;;;;;;427.23;154.07;;;;;;;-5.58;99.56;99177.00;4925504;29;20306;-84
2021/12/24 06:18:24;;;;;;;409.10;150.32;;;;;;;-3.53;100.00;99550.19;4934339;29;20196;-85
2021/12/24 06:20:52;;;;;;;404.67;149.25;;;;;;;-3.82;100.00;99541.47;4920252;29;20173;-85
2021/12/24 06:23:20;;;;;;;504.58;211.05;;;;;;;-4.13;99.64;99436.16;4938042;28;20256;-84
2021/12/24 06:25:46;;;;;;;381.70;134.75;;;;;;;-3.63;99.35;99503.03;4942749;29;20203;-86
2021/12/24 06:28:11;;;;;;;425.17;166.93;;;;;;;-2.92;97.95;99593.38;4936251;29;20256;-84
2021/12/24 06:30:39;;;;;;;346.13;119.20;;;;;;;-2.67;96.04;99602.50;4947041;29;20634;-87
2021/12/24 06:33:04;;;;;;;239.02;90.03;;;;;;;-2.54;95.21;99595.50;4951920;28;20181;-86
2021/12/24 06:35:31;;;;;;;204.53;75.37;;;;;;;-4.63;93.91;99223.63;4952557;29;20719;-84
2021/12/24 06:37:57;;;;;;;230.57;81.97;;;;;;;-5.26;93.39;99140.75;4962483;29;20599;-85
2021/12/24 06:40:23;;;;;;;281.63;102.67;;;;;;;-5.25;93.60;99095.66;4966355;29;20191;-87
2021/12/24 06:42:49;;;;;;;168.15;62.10;;;;;;;-5.23;93.22;99057.22;4970746;29;20244;-86
2021/12/24 06:45:19;;;;;;;203.80;76.87;;;;;;;-4.10;93.91;99253.59;4963423;28;20693;-85
2021/12/24 06:47:47;;;;;;;155.60;55.70;;;;;;;-2.55;94.31;99514.47;4959050;28;20256;-88
2021/12/24 06:50:14;;;;;;;197.60;81.57;;;;;;;-3.57;95.15;99367.56;4975774;28;20565;-86
2021/12/24 06:52:40;;;;;;;164.23;61.47;;;;;;;-2.34;95.56;99580.97;4959363;28;20196;-87
2021/12/24 06:55:06;;;;;;;172.87;62.90;;;;;;;-4.55;95.60;99158.59;4965936;29;20161;-85
2021/12/24 06:57:31;;;;;;;160.43;61.95;;;;;;;-1.25;95.17;99601.25;4961104;29;20177;-85
2021/12/24 06:59:59;;;;;;;158.43;61.73;;;;;;;-2.15;81.80;98919.16;4963156;29;20181;-86
2021/12/24 07:02:24;;;;;;;187.90;73.30;;;;;;;3.28;67.42;99347.81;4929738;29;20263;-88
2021/12/24 07:04:51;;;;;;;490.30;160.33;;;;;;;5.84;60.53;99560.06;4936453;29;20193;-85
2021/12/24 07:07:17;;;;;;;339.27;115.10;;;;;;;6.05;56.24;99404.78;4920167;29;20220;-87
2021/12/24 07:09:42;;;;;;;336.20;118.37;;;;;;;4.93;53.37;99156.81;4921962;29;20453;-89
2021/12/24 07:12:13;;;;;;;490.17;180.50;;;;;;;7.63;51.42;99571.09;4942883;29;20207;-87
2021/12/24 07:14:41;;;;;;;388.10;136.97;;;;;;;7.70;51.59;99483.34;4940248;29;20215;-89
2021/12/24 07:17:10;;;;;;;374.47;138.17;;;;;;;7.71;48.73;99419.59;4939669;29;20482;-85
2021/12/24 07:19:38;;;;;;;327.47;126.40;;;;;;;5.69;47.96;99206.59;4929002;29;20451;-86
2021/12/24 07:22:07;;;;;;;299.10;122.57;;;;;;;6.44;48.77;99351.00;4940624;29;20519;-87
2021/12/24 07:24:33;;;;;;;301.57;130.33;;;;;;;2.99;53.06;99149.06;4946454;29;20445;-86
2021/12/24 07:26:58;;;;;;;215.03;97.40;;;;;;;0.56;59.65;99119.47;4944273;29;20978;-87
2021/12/24 07:29:23;;;;;;;168.67;74.17;;;;;;;1.16;63.41;99330.16;4937545;29;20340;-88
2021/12/24 07:31:49;;;;;;;152.07;65.07;;;;;;;1.65;66.00;99473.66;4921926;29;20276;-85
2021/12/24 07:34:14;;;;;;;228.33;102.87;;;;;;;0.73;66.92;99337.50;4920655;29;20655;-86
2021/12/24 07:36:40;;;;;;;315.57;130.53;;;;;;;2.32;67.01;99582.19;4922967;29;20209;-87
2021/12/24 07:39:05;;;;;;;299.47;126.97;;;;;;;1.36;66.10;99431.47;4926768;29;20209;-86
2021/12/24 07:41:31;;;;;;;204.07;83.87;;;;;;;-1.27;68.30;99155.81;4920455;29;20197;-87
2021/12/24 07:43:57;;;;;;;275.07;107.40;;;;;;;1.24;71.40;99565.13;4920193;29;20204;-88
2021/12/24 07:46:25;;;;;;;237.13;105.13;;;;;;;-1.59;73.41;99147.22;4937622;29;20269;-87
2021/12/24 07:49:01;;;;;;;192.05;83.68;;;;;;;-0.31;74.27;99353.69;4923075;29;20216;-87
2021/12/24 07:54:13;;;;;;;179.13;74.15;;;;;;;0.93;74.44;99525.97;4937161;29;20932;-87
2021/12/24 07:56:39;;;;;;;200.43;81.33;;;;;;;1.59;72.41;99591.31;4938036;29;20193;-88
2021/12/24 07:59:05;;;;;;;221.73;85.97;;;;;;;1.85;72.12;99577.56;4940289;29;20177;-89
2021/12/24 08:01:30;;;;;;;200.37;79.63;;;;;;;0.36;69.95;99278.88;4938058;29;20177;-86
2021/12/24 08:03:58;;;;;;;183.73;70.40;;;;;;;-1.54;68.71;98933.44;4921232;29;20473;-88
2021/12/24 08:06:52;;;;;;;195.00;77.43;;;;;;;0.68;66.83;99303.00;4934723;29;20268;-86
2021/12/24 08:09:39;;;;;;;168.43;64.83;;;;;;;2.58;65.21;99565.13;4876694;29;20865;-87
2021/12/24 08:12:10;;;;;;;133.87;58.40;;;;;;;2.69;65.38;99568.44;4877135;29;20439;-87
2021/12/24 08:14:36;;;;;;;122.90;50.40;;;;;;;2.62;64.75;99563.72;4877414;29;20519;-89
2021/12/24 08:17:03;;;;;;;110.40;49.70;;;;;;;0.60;64.03;99160.44;4877286;29;20471;-90
2021/12/24 08:19:29;;;;;;;110.27;48.60;;;;;;;0.70;66.28;99200.25;4878573;29;20451;-86
2021/12/24 08:21:55;;;;;;;142.20;60.57;;;;;;;3.10;67.50;99547.44;4864946;29;20529;-90
2021/12/24 08:24:21;;;;;;;126.77;52.90;;;;;;;0.74;66.42;99104.22;4878195;29;20476;-87
2021/12/24 08:26:48;;;;;;;133.70;57.10;;;;;;;0.93;65.99;99115.72;4879716;29;20439;-90
2021/12/24 08:29:14;;;;;;;142.83;59.00;;;;;;;1.46;66.08;99246.88;4878192;29;20199;-90
2021/12/24 08:31:40;;;;;;;140.13;56.80;;;;;;;3.19;66.82;99527.22;4851880;29;20484;-90
2021/12/24 08:34:06;;;;;;;150.87;60.57;;;;;;;2.05;66.61;99301.31;4874647;29;20523;-89
2021/12/24 08:36:32;;;;;;;190.37;75.07;;;;;;;3.61;66.03;99515.34;4877237;29;20235;-88
2021/12/24 08:38:58;;;;;;;141.50;59.97;;;;;;;3.77;65.78;99513.19;4862362;29;20448;-87
2021/12/24 08:41:24;;;;;;;148.03;62.53;;;;;;;4.01;65.34;99497.38;4883275;29;20443;-87
2021/12/24 08:43:50;;;;;;;176.77;78.47;;;;;;;2.28;65.01;99215.63;4895935;29;20207;-87
2021/12/24 08:46:15;;;;;;;149.37;63.63;;;;;;;3.13;63.46;99261.69;4883475;29;20545;-89
2021/12/24 08:48:41;;;;;;;153.83;65.70;;;;;;;4.02;62.56;99403.09;4878393;29;20219;-88
2021/12/24 08:51:06;;;;;;;138.83;60.63;;;;;;;4.52;61.81;99441.63;4878282;29;20254;-89
2021/12/24 08:53:32;;;;;;;131.83;54.70;;;;;;;3.69;63.14;99361.56;4937300;28;20197;-90
2021/12/24 08:55:58;;;;;;;120.17;51.30;;;;;;;2.89;63.32;99284.19;4950706;29;20181;-87
2021/12/24 08:58:24;;;;;;;120.07;50.73;;;;;;;4.15;62.82;99494.22;4941152;29;20307;-88
2021/12/24 09:00:50;;;;;;;108.23;45.93;;;;;;;3.83;63.07;99423.50;4932106;29;20969;-88
2021/12/24 09:03:16;;;;;;;131.50;58.13;;;;;;;4.56;61.74;99443.59;4926090;29;20233;-88
2021/12/24 09:05:42;;;;;;;132.90;57.00;;;;;;;5.24;59.74;99504.22;4933656;29;20189;-89
2021/12/24 09:08:08;;;;;;;147.07;61.13;;;;;;;3.93;58.99;99240.56;4945571;29;20209;-88
2021/12/24 09:10:34;;;;;;;117.60;49.50;;;;;;;4.76;57.46;99353.00;4953213;29;20448;-92
2021/12/24 09:13:00;;;;;;;101.77;44.07;;;;;;;3.36;56.97;99084.91;4940912;29;20192;-86
2021/12/24 09:15:29;;;;;;;100.23;45.03;;;;;;;3.56;56.75;99114.63;4935788;29;20224;-88
2021/12/24 09:17:58;;;;;;;93.17;41.50;;;;;;;5.94;56.73;99504.63;4940037;29;20424;-89
2021/12/24 09:20:29;;;;;;;96.43;42.17;;;;;;;4.14;57.14;99221.09;4940878;29;20488;-86
2021/12/24 09:22:56;;;;;;;111.73;49.67;;;;;;;6.04;56.28;99465.00;4954412;29;20958;-89
2021/12/24 09:25:23;;;;;;;98.90;45.93;;;;;;;6.23;55.31;99463.72;4935039;29;20554;-86
2021/12/24 09:27:50;;;;;;;97.53;45.23;;;;;;;6.26;55.14;99458.00;4936690;29;20461;-87
2021/12/24 09:30:16;;;;;;;96.70;42.83;;;;;;;5.79;55.63;99450.88;4935501;29;20476;-91
2021/12/24 09:32:44;;;;;;;92.90;39.60;;;;;;;6.03;55.27;99436.50;4936191;29;20515;-87
2021/12/24 09:35:10;;;;;;;93.30;42.53;;;;;;;3.28;55.20;98967.59;4936858;29;20188;-89
2021/12/24 09:37:37;;;;;;;93.23;43.60;;;;;;;5.53;55.51;99329.47;4936398;29;20961;-90
2021/12/24 09:40:05;;;;;;;100.17;46.00;;;;;;;4.46;55.31;99206.50;4936095;29;20820;-89
2021/12/24 09:42:31;;;;;;;74.03;34.50;;;;;;;3.63;55.65;99087.47;4937548;29;20425;-90
2021/12/24 09:44:58;;;;;;;69.83;35.53;;;;;;;5.60;55.04;99412.84;4936824;29;20956;-88
2021/12/24 09:47:24;;;;;;;70.57;34.97;;;;;;;4.89;54.61;99250.19;4936401;29;20474;-89
2021/12/24 09:49:50;;;;;;;71.07;36.33;;;;;;;5.06;53.92;99234.56;4936952;29;20828;-88
2021/12/24 09:52:23;;;;;;;73.73;35.50;;;;;;;4.05;53.49;99038.53;4937674;29;20523;-86
2021/12/24 09:54:49;;;;;;;76.50;35.67;;;;;;;5.11;52.84;99162.94;4963323;28;20227;-88
2021/12/24 09:57:15;;;;;;;70.47;35.73;;;;;;;4.59;51.82;98997.56;4920874;29;20430;-88
2021/12/24 09:59:41;;;;;;;76.20;37.00;;;;;;;6.14;51.75;99266.25;4934287;29;20488;-91
2021/12/24 10:02:14;;;;;;;90.00;40.90;;;;;;;6.70;52.03;99370.13;4934171;29;20177;-87
2021/12/24 10:04:40;;;;;;;111.47;55.40;;;;;;;3.87;52.49;98936.38;4923652;28;20994;-87
2021/12/24 10:07:16;;;;;;;102.80;44.47;;;;;;;6.65;51.81;99372.38;4934752;29;20464;-87
2021/12/24 10:09:47;;;;;;;101.53;44.77;;;;;;;6.32;52.81;99365.34;4937003;29;20511;-87
2021/12/24 10:12:23;;;;;;;100.60;44.60;;;;;;;5.94;52.16;99250.00;4935805;29;20992;-88
2021/12/24 10:14:52;;;;;;;101.27;45.00;;;;;;;5.23;50.96;99062.47;4917058;29;20460;-86
2021/12/24 10:17:21;;;;;;;107.77;48.87;;;;;;;6.70;51.43;99304.72;4920965;29;20433;-89
2021/12/24 10:19:49;;;;;;;93.10;43.83;;;;;;;6.25;50.71;99193.22;4925565;29;20460;-89
2021/12/24 10:22:15;;;;;;;97.17;47.23;;;;;;;5.98;50.52;99127.97;5004384;23;20559;-87
2021/12/24 10:24:41;;;;;;;108.97;47.23;;;;;;;5.31;51.63;99069.66;4935350;29;20969;-87
2021/12/24 10:27:06;;;;;;;105.87;49.70;;;;;;;6.31;51.44;99255.53;4935824;29;20480;-87
2021/12/24 10:29:43;;;;;;;92.63;44.50;;;;;;;6.28;52.78;99228.59;4934970;29;20210;-87
2021/12/24 10:32:20;;;;;;;89.63;43.30;;;;;;;5.42;53.38;99104.56;4935817;29;20229;-85
2021/12/24 10:34:49;;;;;;;97.80;45.33;;;;;;;5.03;52.68;99022.78;4935829;29;20460;-87
2021/12/24 10:37:24;;;;;;;102.90;47.27;;;;;;;4.47;53.75;98922.56;4935079;29;20440;-87
2021/12/24 10:40:03;;;;;;;103.13;47.57;;;;;;;5.62;52.82;99146.75;4916179;29;20437;-87
2021/12/24 10:42:37;;;;;;;112.50;50.60;;;;;;;6.53;54.14;99322.25;4916272;29;20438;-86
2021/12/24 10:45:20;;;;;;;103.77;49.57;;;;;;;6.04;52.97;99186.97;4916072;29;20943;-86
2021/12/24 10:47:47;;;;;;;125.17;53.60;;;;;;;4.49;52.93;98921.00;4916482;29;20500;-85
2021/12/24 10:53:11;;;;;;;139.10;62.23;;;;;;;4.50;54.27;98984.53;4934977;29;20464;-87
2021/12/24 10:55:43;;;;;;;115.27;52.23;;;;;;;5.14;52.71;98999.19;4934916;29;20444;-86
2021/12/24 10:58:15;;;;;;;109.77;48.33;;;;;;;5.33;53.63;99055.56;4932518;29;20437;-87
2021/12/24 11:00:48;;;;;;;103.63;47.60;;;;;;;5.50;52.86;99033.06;4917599;29;20444;-86
2021/12/24 11:03:25;;;;;;;96.97;45.13;;;;;;;4.89;52.40;98956.78;4923605;29;21002;-85
2021/12/24 11:05:53;;;;;;;97.93;46.50;;;;;;;6.43;54.07;99299.84;4918018;29;20444;-88
2021/12/24 11:08:21;;;;;;;108.53;50.43;;;;;;;6.15;54.25;99192.63;4917317;29;20552;-87
2021/12/24 11:10:49;;;;;;;149.17;62.67;;;;;;;6.94;53.43;99245.72;4918203;29;20445;-86
2021/12/24 11:13:21;;;;;;;111.77;48.50;;;;;;;6.80;52.13;99186.22;4920187;29;20738;-88
2021/12/24 11:15:47;;;;;;;93.33;42.73;;;;;;;7.45;51.51;99271.19;4924737;29;20480;-89
2021/12/24 11:18:23;;;;;;;125.83;53.87;;;;;;;5.74;52.00;99017.75;4927636;29;20674;-84
2021/12/24 11:20:53;;;;;;;123.10;57.67;;;;;;;3.81;51.93;98774.16;4923076;29;20497;-86
2021/12/24 11:23:20;;;;;;;127.67;59.37;;;;;;;4.17;52.53;98786.31;4914220;29;20597;-87
2021/12/24 11:25:54;;;;;;;131.90;60.23;;;;;;;7.28;51.23;99264.38;4903234;29;20478;-86
2021/12/24 11:28:21;;;;;;;138.63;61.40;;;;;;;5.11;52.04;98911.25;4920054;29;20523;-87
2021/12/24 11:30:49;;;;;;;129.10;60.97;;;;;;;7.39;51.63;99262.47;4917130;29;20468;-87
2021/12/24 11:33:19;;;;;;;166.20;74.07;;;;;;;5.38;51.52;98933.72;4922989;29;20472;-88
2021/12/24 11:35:47;;;;;;;131.97;63.17;;;;;;;6.06;51.04;98993.59;4924079;29;20418;-86
2021/12/24 11:38:16;;;;;;;146.63;65.03;;;;;;;7.33;50.65;99181.56;4939754;29;20447;-88
2021/12/24 11:40:44;;;;;;;241.57;90.60;;;;;;;6.73;50.91;99079.38;4921341;29;20432;-87
2021/12/24 11:43:11;;;;;;;137.53;62.33;;;;;;;6.30;50.96;99003.31;4940932;29;20420;-88
2021/12/24 11:45:36;;;;;;;144.67;64.03;;;;;;;6.32;50.01;99028.50;4940726;29;20250;-87
2021/12/24 11:48:03;;;;;;;132.13;62.17;;;;;;;4.37;50.78;98683.91;4940804;29;20245;-89
2021/12/24 11:50:29;;;;;;;148.43;69.00;;;;;;;7.19;50.02;99165.72;4924128;29;20259;-86
2021/12/24 11:52:58;;;;;;;137.57;66.30;;;;;;;4.35;49.97;98637.84;4924987;29;20169;-90
2021/12/24 11:55:30;;;;;;;123.93;58.47;;;;;;;5.31;50.21;98863.88;4942567;29;20181;-88
2021/12/24 11:57:59;;;;;;;122.10;57.77;;;;;;;7.56;50.05;99212.19;4922734;29;20177;-89
2021/12/24 12:00:38;;;;;;;118.63;54.90;;;;;;;6.87;50.28;99098.59;4934147;29;20450;-87
2021/12/24 12:03:03;;;;;;;116.77;53.30;;;;;;;5.10;50.25;98784.94;4919441;29;20436;-88
2021/12/24 12:05:29;;;;;;;130.47;61.53;;;;;;;7.56;50.57;99189.50;4938724;29;20437;-88
2021/12/24 12:08:26;;;;;;;95.93;47.53;;;;;;;6.58;49.50;99017.34;4940410;29;20201;-87
2021/12/24 12:10:55;;;;;;;102.97;49.17;;;;;;;7.84;49.04;99188.41;4904367;29;20198;-87
2021/12/24 12:13:41;;;;;;;98.70;46.67;;;;;;;7.84;48.54;99186.75;4918478;29;20167;-88
2021/12/24 12:16:09;;;;;;;83.20;44.10;;;;;;;7.66;48.69;99146.38;4900947;29;20225;-87
2021/12/24 12:19:01;;;;;;;84.73;41.60;;;;;;;4.59;49.25;98701.81;4903773;29;20189;-88
2021/12/24 12:21:41;;;;;;;72.17;36.87;;;;;;;7.84;48.59;99178.31;4917879;29;20237;-88
2021/12/24 12:26:45;;;;;;;612.30;160.40;;;;;;;5.63;48.40;98829.66;4915335;29;20674;-86
2021/12/24 12:29:16;;;;;;;139.33;44.03;;;;;;;7.64;49.04;99175.66;4922082;29;20255;-87
2021/12/24 12:31:44;;;;;;;62.67;32.00;;;;;;;6.28;48.15;98932.00;4919329;29;20186;-88
2021/12/24 12:34:43;;;;;;;71.77;35.07;;;;;;;7.72;49.31;99171.88;4901656;29;20190;-87
2021/12/24 12:37:27;;;;;;;70.23;36.13;;;;;;;8.04;48.50;99178.56;4902884;29;20177;-86
2021/12/24 12:40:02;;;;;;;64.93;33.60;;;;;;;6.14;48.04;98870.09;4917630;29;20268;-87
2021/12/24 12:42:54;;;;;;;77.73;39.73;;;;;;;8.41;47.27;99181.22;4918523;29;20178;-88
2021/12/24 12:45:42;;;;;;;102.50;48.87;;;;;;;8.64;47.50;99172.25;4902144;29;20193;-88
2021/12/24 12:48:11;;;;;;;62.97;35.17;;;;;;;8.60;47.65;99188.88;4936345;29;20217;-86
2021/12/24 12:50:50;;;;;;;67.90;37.00;;;;;;;8.33;47.31;99157.31;4938022;29;20178;-86
2021/12/24 12:53:27;;;;;;;81.70;41.33;;;;;;;8.60;47.38;99168.69;4917832;29;20685;-88
2021/12/24 12:56:14;;;;;;;104.30;48.63;;;;;;;8.79;47.29;99163.72;4919105;29;20564;-88
2021/12/24 12:58:42;;;;;;;79.30;42.30;;;;;;;8.15;47.30;99069.00;4917669;29;20178;-87
2021/12/24 13:01:11;;;;;;;95.20;47.33;;;;;;;7.79;47.65;99018.50;4901399;29;20198;-88
2021/12/24 13:03:55;;;;;;;78.23;37.37;;;;;;;8.75;47.03;99177.00;4906022;29;20177;-87